createdAt,value
2018-09-03T00:00:58.136Z,2.63
2018-09-03T00:03:26.932Z,3.20
2018-09-03T00:05:55.692Z,2.97
2018-09-03T00:08:24.458Z,3.80
2018-09-03T00:10:53.271Z,4.10
2018-09-03T00:13:22.044Z,2.87
2018-09-03T00:15:50.438Z,3.17
2018-09-03T00:18:19.219Z,2.80
2018-09-03T00:20:47.964Z,3.40
2018-09-03T00:23:16.743Z,3.40
2018-09-03T00:25:45.571Z,4.90
2018-09-03T00:28:14.345Z,3.87
2018-09-03T00:30:42.790Z,2.73
2018-09-03T00:34:20.525Z,4.37
2018-09-03T00:36:54.152Z,2.60
2018-09-03T00:39:27.924Z,3.37
2018-09-03T00:42:02.054Z,4.37
2018-09-03T00:44:36.096Z,3.60
2018-09-03T00:47:06.765Z,5.40
2018-09-03T00:49:35.212Z,2.67
2018-09-03T00:52:04.107Z,3.20
2018-09-03T00:54:33.583Z,5.50
2018-09-03T00:57:01.993Z,2.70
2018-09-03T00:59:30.759Z,4.83
2018-09-03T01:01:59.504Z,2.67
2018-09-03T01:04:28.244Z,3.30
2018-09-03T01:06:57.132Z,2.67
2018-09-03T01:09:25.924Z,4.60
2018-09-03T01:11:54.361Z,4.30
2018-09-03T01:14:22.741Z,4.23
2018-09-03T01:16:51.151Z,3.30
2018-09-03T01:19:19.948Z,3.33
2018-09-03T01:21:48.436Z,2.83
2018-09-03T01:24:17.262Z,2.70
2018-09-03T01:26:46.041Z,3.00
2018-09-03T01:29:14.861Z,3.60
2018-09-03T01:31:43.590Z,4.60
2018-09-03T01:34:12.479Z,3.57
2018-09-03T01:36:40.852Z,3.70
2018-09-03T01:39:09.751Z,4.43
2018-09-03T01:41:38.135Z,3.90
2018-09-03T01:44:06.951Z,3.10
2018-09-03T01:46:35.736Z,6.17
2018-09-03T01:49:04.572Z,3.17
2018-09-03T01:51:33.381Z,4.37
2018-09-03T01:54:01.790Z,3.00
2018-09-03T01:56:30.590Z,4.53
2018-09-03T01:58:58.950Z,3.07
2018-09-03T02:01:27.879Z,3.90
2018-09-03T02:03:56.672Z,4.63
2018-09-03T02:06:25.532Z,3.77
2018-09-03T02:08:53.911Z,5.70
2018-09-03T02:11:22.446Z,3.90
2018-09-03T02:13:51.387Z,4.23
2018-09-03T02:16:20.130Z,4.57
2018-09-03T02:18:48.915Z,4.27
2018-09-03T02:21:17.408Z,5.50
2018-09-03T02:23:46.218Z,4.10
2018-09-03T02:26:14.677Z,4.93
2018-09-03T02:28:43.122Z,3.70
2018-09-03T02:31:12.983Z,4.70
2018-09-03T02:33:41.798Z,4.27
2018-09-03T02:36:10.600Z,8.07
2018-09-03T02:38:39.397Z,4.73
2018-09-03T02:41:08.202Z,3.77
2018-09-03T02:43:36.648Z,3.47
2018-09-03T02:46:05.181Z,4.50
2018-09-03T02:48:34.067Z,3.60
2018-09-03T02:51:02.908Z,5.17
2018-09-03T02:53:31.774Z,4.40
2018-09-03T02:56:00.596Z,3.37
2018-09-03T02:58:29.401Z,4.20
2018-09-03T03:00:57.846Z,3.83
2018-09-03T03:03:26.640Z,4.33
2018-09-03T03:05:55.466Z,3.27
2018-09-03T03:08:23.820Z,3.50
2018-09-03T03:10:53.073Z,4.77
2018-09-03T03:13:21.921Z,4.00
2018-09-03T03:15:50.710Z,4.20
2018-09-03T03:18:19.556Z,3.57
2018-09-03T03:20:48.015Z,5.00
2018-09-03T03:23:16.438Z,3.97
2018-09-03T03:25:44.866Z,6.60
2018-09-03T03:28:13.661Z,4.37
2018-09-03T03:30:42.463Z,3.57
2018-09-03T03:33:11.292Z,5.27
2018-09-03T03:35:39.775Z,7.13
2018-09-03T03:38:08.210Z,4.60
2018-09-03T03:40:36.605Z,4.27
2018-09-03T03:43:05.430Z,4.97
2018-09-03T03:45:34.208Z,7.77
2018-09-03T03:48:02.962Z,6.63
2018-09-03T03:50:31.833Z,6.33
2018-09-03T03:53:00.259Z,7.37
2018-09-03T03:55:29.160Z,9.40
2018-09-03T03:57:57.584Z,5.17
2018-09-03T04:00:26.404Z,6.70
2018-09-03T04:02:54.778Z,5.07
2018-09-03T04:05:23.618Z,4.87
2018-09-03T04:07:52.006Z,5.13
2018-09-03T04:10:20.796Z,6.17
2018-09-03T04:12:55.121Z,5.57
2018-09-03T04:15:24.102Z,5.83
2018-09-03T04:17:52.874Z,5.63
2018-09-03T04:20:21.696Z,5.43
2018-09-03T04:22:50.552Z,5.87
2018-09-03T04:25:19.315Z,7.40
2018-09-03T04:27:47.752Z,4.80
2018-09-03T04:30:16.241Z,5.60
2018-09-03T04:32:45.086Z,5.63
2018-09-03T04:35:14.024Z,5.50
2018-09-03T04:37:42.849Z,4.87
2018-09-03T04:40:11.685Z,6.37
2018-09-03T04:42:40.421Z,5.03
2018-09-03T04:45:09.219Z,5.43
2018-09-03T04:47:38.106Z,12.33
2018-09-03T04:50:06.981Z,7.10
2018-09-03T04:52:35.364Z,8.23
2018-09-03T04:55:04.257Z,7.63
2018-09-03T04:57:33.163Z,5.90
2018-09-03T05:00:01.571Z,6.27
2018-09-03T05:02:30.400Z,8.70
2018-09-03T05:04:59.233Z,9.53
2018-09-03T05:07:28.048Z,8.07
2018-09-03T05:09:56.907Z,8.90
2018-09-03T05:12:25.357Z,6.40
2018-09-03T05:14:54.159Z,7.73
2018-09-03T05:17:22.566Z,6.00
2018-09-03T05:19:50.962Z,7.50
2018-09-03T05:22:19.373Z,8.87
2018-09-03T05:24:47.769Z,7.00
2018-09-03T05:27:16.593Z,12.17
2018-09-03T05:29:45.055Z,8.23
2018-09-03T05:32:13.448Z,11.80
2018-09-03T05:34:41.878Z,6.80
2018-09-03T05:37:10.728Z,6.50
2018-09-03T05:39:39.157Z,7.23
2018-09-03T05:42:07.581Z,7.17
2018-09-03T05:44:36.021Z,7.57
2018-09-03T05:47:04.629Z,6.97
2018-09-03T05:49:33.385Z,7.77
2018-09-03T05:52:01.810Z,7.63
2018-09-03T05:54:30.628Z,7.97
2018-09-03T05:56:59.030Z,7.60
2018-09-03T05:59:27.438Z,9.80
2018-09-03T06:01:56.614Z,9.70
2018-09-03T06:04:25.536Z,8.57
2018-09-03T06:06:53.925Z,7.00
2018-09-03T06:09:22.712Z,13.90
2018-09-03T06:11:51.495Z,10.23
2018-09-03T06:14:20.348Z,7.63
2018-09-03T06:16:48.741Z,8.90
2018-09-03T06:19:17.169Z,7.73
2018-09-03T06:21:45.603Z,7.67
2018-09-03T06:24:13.989Z,7.70
2018-09-03T06:26:42.443Z,8.60
2018-09-03T06:29:11.219Z,8.27
2018-09-03T06:31:39.618Z,8.30
2018-09-03T06:34:08.460Z,10.47
2018-09-03T06:36:36.885Z,7.33
2018-09-03T06:39:06.871Z,6.67
2018-09-03T06:41:35.616Z,7.43
2018-09-03T06:44:04.439Z,9.77
2018-09-03T06:46:33.250Z,8.23
2018-09-03T06:49:01.650Z,9.20
2018-09-03T06:51:30.493Z,9.03
2018-09-03T06:53:58.965Z,14.30
2018-09-03T06:56:27.773Z,8.63
2018-09-03T06:58:56.552Z,8.43
2018-09-03T07:01:26.381Z,10.10
2018-09-03T07:03:54.820Z,9.87
2018-09-03T07:06:23.187Z,9.50
2018-09-03T07:08:52.003Z,7.87
2018-09-03T07:11:20.862Z,10.03
2018-09-03T07:13:49.713Z,8.23
2018-09-03T07:16:18.479Z,11.47
2018-09-03T07:18:47.487Z,8.23
2018-09-03T07:21:16.711Z,11.27
2018-09-03T07:23:45.158Z,10.03
2018-09-03T07:26:13.515Z,10.63
2018-09-03T07:28:42.400Z,10.13
2018-09-03T07:31:11.224Z,11.33
2018-09-03T07:33:39.702Z,10.53
2018-09-03T07:36:08.511Z,12.43
2018-09-03T07:38:37.348Z,8.80
2018-09-03T07:41:05.747Z,10.10
2018-09-03T07:43:34.568Z,11.50
2018-09-03T07:46:03.387Z,8.97
2018-09-03T07:48:32.223Z,8.83
2018-09-03T07:51:01.074Z,8.20
2018-09-03T07:53:29.869Z,9.67
2018-09-03T07:55:58.304Z,10.60
2018-09-03T07:58:27.119Z,10.63
2018-09-03T08:00:56.003Z,11.70
2018-09-03T08:03:24.406Z,11.77
2018-09-03T08:05:52.855Z,11.47
2018-09-03T08:08:22.471Z,9.80
2018-09-03T08:10:51.259Z,9.47
2018-09-03T08:13:25.193Z,12.10
2018-09-03T08:15:53.589Z,8.73
2018-09-03T08:18:22.011Z,8.53
2018-09-03T08:20:50.834Z,8.93
2018-09-03T08:23:19.287Z,9.83
2018-09-03T08:25:47.660Z,8.83
2018-09-03T08:28:16.827Z,8.97
2018-09-03T08:30:47.052Z,11.13
2018-09-03T08:33:15.881Z,36.40
2018-09-03T08:35:44.322Z,8.90
2018-09-03T08:38:13.122Z,10.23
2018-09-03T08:40:41.535Z,11.90
2018-09-03T08:43:10.335Z,8.97
2018-09-03T08:45:38.776Z,9.53
2018-09-03T08:48:07.571Z,10.47
2018-09-03T08:50:38.122Z,9.27
2018-09-03T08:53:06.521Z,9.47
2018-09-03T08:55:35.321Z,10.47
2018-09-03T08:58:03.784Z,14.50
2018-09-03T09:00:32.600Z,9.20
2018-09-03T09:03:01.398Z,9.10
2018-09-03T09:05:29.843Z,12.07
2018-09-03T09:07:58.659Z,11.40
2018-09-03T09:10:27.454Z,12.17
2018-09-03T09:12:55.869Z,13.13
2018-09-03T09:15:24.613Z,12.07
2018-09-03T09:17:53.455Z,11.13
2018-09-03T09:20:21.853Z,13.33
2018-09-03T09:22:50.632Z,14.10
2018-09-03T09:25:19.772Z,18.20
2018-09-03T09:27:48.522Z,11.87
2018-09-03T09:30:16.944Z,14.10
2018-09-03T09:32:45.739Z,12.07
2018-09-03T09:35:14.508Z,12.77
2018-09-03T09:37:43.386Z,11.53
2018-09-03T09:40:11.799Z,13.37
2018-09-03T09:42:41.262Z,11.13
2018-09-03T09:45:11.239Z,12.07
2018-09-03T09:47:39.645Z,13.77
2018-09-03T09:50:22.457Z,12.57
2018-09-03T09:52:51.268Z,13.70
2018-09-03T09:55:20.119Z,15.47
2018-09-03T09:57:48.907Z,14.07
2018-09-03T10:00:22.813Z,14.37
2018-09-03T10:02:51.611Z,14.50
2018-09-03T10:05:20.407Z,13.80
2018-09-03T10:07:49.254Z,14.13
2018-09-03T10:10:17.704Z,16.77
2018-09-03T10:12:46.104Z,15.07
2018-09-03T10:15:14.918Z,13.33
2018-09-03T10:17:43.689Z,13.60
2018-09-03T10:20:12.911Z,16.07
2018-09-03T10:22:41.693Z,15.53
2018-09-03T10:25:10.098Z,14.60
2018-09-03T10:27:38.938Z,18.27
2018-09-03T10:30:07.728Z,17.30
2018-09-03T10:32:36.611Z,18.80
2018-09-03T10:35:05.469Z,16.20
2018-09-03T10:37:34.628Z,18.20
2018-09-03T10:40:03.536Z,15.00
2018-09-03T10:42:32.358Z,16.20
2018-09-03T10:45:00.842Z,15.27
2018-09-03T10:47:29.275Z,16.40
2018-09-03T10:49:58.091Z,17.13
2018-09-03T10:52:26.985Z,14.83
2018-09-03T10:54:55.428Z,15.90
2018-09-03T10:57:23.858Z,25.07
2018-09-03T10:59:52.726Z,17.93
2018-09-03T11:02:21.521Z,16.53
2018-09-03T11:04:50.299Z,19.37
2018-09-03T11:07:19.123Z,18.83
2018-09-03T11:09:47.950Z,17.73
2018-09-03T11:12:16.845Z,18.50
2018-09-03T11:14:45.630Z,18.43
2018-09-03T11:17:14.501Z,20.33
2018-09-03T11:19:47.682Z,20.90
2018-09-03T11:22:16.129Z,17.90
2018-09-03T11:24:44.622Z,20.80
2018-09-03T11:27:13.436Z,17.90
2018-09-03T11:29:42.316Z,20.90
2018-09-03T11:32:11.105Z,18.50
2018-09-03T11:34:39.894Z,18.03
2018-09-03T11:37:08.878Z,20.50
2018-09-03T11:39:37.724Z,16.10
2018-09-03T11:42:06.553Z,19.87
2018-09-03T11:44:34.927Z,17.47
2018-09-03T11:47:03.520Z,17.97
2018-09-03T11:49:32.242Z,17.60
2018-09-03T11:52:01.069Z,18.60
2018-09-03T11:54:29.935Z,17.97
2018-09-03T11:56:58.693Z,17.87
2018-09-03T11:59:27.179Z,17.17
2018-09-03T12:01:55.646Z,16.73
2018-09-03T12:04:24.512Z,15.53
2018-09-03T12:06:53.369Z,26.97
2018-09-03T12:09:22.282Z,16.13
2018-09-03T12:11:51.074Z,19.00
2018-09-03T12:14:30.574Z,16.53
2018-09-03T12:16:59.791Z,15.30
2018-09-03T12:19:28.171Z,16.73
2018-09-03T12:21:56.996Z,21.13
2018-09-03T12:24:25.826Z,18.27
2018-09-03T12:26:54.693Z,18.60
2018-09-03T12:29:23.483Z,15.63
2018-09-03T12:31:51.940Z,15.40
2018-09-03T12:34:20.748Z,16.47
2018-09-03T12:36:49.600Z,17.03
2018-09-03T12:39:18.471Z,15.20
2018-09-03T12:41:46.930Z,15.30
2018-09-03T12:44:15.334Z,15.20
2018-09-03T12:46:44.109Z,19.57
2018-09-03T12:49:12.945Z,15.83
2018-09-03T12:51:41.699Z,15.53
2018-09-03T12:54:10.149Z,14.37
2018-09-03T12:56:39.003Z,15.53
2018-09-03T12:59:07.779Z,16.33
2018-09-03T13:01:36.574Z,15.17
2018-09-03T13:04:05.487Z,15.67
2018-09-03T13:06:34.285Z,14.37
2018-09-03T13:09:03.154Z,13.47
2018-09-03T13:11:31.973Z,13.27
2018-09-03T13:14:00.730Z,17.17
2018-09-03T13:16:29.554Z,13.70
2018-09-03T13:18:58.425Z,14.93
2018-09-03T13:21:27.657Z,14.43
2018-09-03T13:23:56.511Z,13.83
2018-09-03T13:26:25.338Z,13.20
2018-09-03T13:28:54.167Z,14.37
2018-09-03T13:31:22.989Z,13.60
2018-09-03T13:33:51.488Z,14.30
2018-09-03T13:36:19.910Z,13.13
2018-09-03T13:38:48.784Z,12.70
2018-09-03T13:41:20.860Z,14.27
2018-09-03T13:43:50.024Z,14.43
2018-09-03T13:46:18.446Z,14.47
2018-09-03T13:48:47.227Z,16.80
2018-09-03T13:51:15.738Z,15.07
2018-09-03T13:53:44.547Z,14.73
2018-09-03T13:56:12.979Z,13.73
2018-09-03T13:58:41.372Z,14.60
2018-09-03T14:01:09.815Z,12.77
2018-09-03T14:03:38.239Z,12.97
2018-09-03T14:06:07.272Z,14.17
2018-09-03T14:08:36.043Z,14.27
2018-09-03T14:11:04.892Z,12.93
2018-09-03T14:13:33.352Z,21.77
2018-09-03T14:16:02.176Z,15.60
2018-09-03T14:18:30.975Z,14.13
2018-09-03T14:20:59.803Z,15.53
2018-09-03T14:23:28.689Z,15.77
2018-09-03T14:25:57.083Z,16.00
2018-09-03T14:32:20.320Z,15.23
2018-09-03T14:34:49.193Z,14.37
2018-09-03T14:37:18.016Z,14.47
2018-09-03T14:39:46.853Z,13.60
2018-09-03T14:42:15.641Z,14.90
2018-09-03T14:44:44.072Z,14.20
2018-09-03T14:47:12.853Z,13.93
2018-09-03T14:49:41.417Z,13.03
2018-09-03T14:52:10.279Z,17.10
2018-09-03T14:54:38.666Z,13.77
2018-09-03T14:57:07.534Z,16.20
2018-09-03T14:59:36.269Z,18.10
2018-09-03T15:02:05.269Z,15.57
2018-09-03T15:04:34.143Z,14.50
2018-09-03T15:07:02.946Z,14.83
2018-09-03T15:09:31.773Z,16.32
2018-09-03T15:12:00.608Z,20.52
2018-09-03T15:14:29.451Z,13.38
2018-09-03T15:16:58.639Z,13.03
2018-09-03T15:19:27.438Z,17.57
2018-09-03T15:21:56.215Z,12.13
2018-09-03T15:24:24.597Z,15.93
2018-09-03T15:26:53.364Z,13.85
2018-09-03T15:29:22.217Z,12.47
2018-09-03T15:31:51.129Z,15.78
2018-09-03T15:34:19.517Z,14.85
2018-09-03T15:36:48.412Z,12.47
2018-09-03T15:39:17.345Z,12.18
2018-09-03T15:41:46.164Z,13.28
2018-09-03T15:44:14.981Z,13.40
2018-09-03T15:46:43.786Z,12.03
2018-09-03T15:49:12.605Z,11.85
2018-09-03T15:51:41.452Z,11.93
2018-09-03T15:54:10.365Z,11.38
2018-09-03T15:56:39.116Z,11.18
2018-09-03T15:59:07.889Z,11.57
2018-09-03T16:01:37.049Z,10.45
2018-09-03T16:04:05.892Z,15.05
2018-09-03T16:06:34.830Z,13.13
2018-09-03T16:09:03.922Z,12.70
2018-09-03T16:11:32.696Z,14.40
2018-09-03T16:14:01.919Z,16.30
2018-09-03T16:16:32.013Z,12.33
2018-09-03T16:19:00.780Z,12.88
2018-09-03T16:21:29.574Z,12.25
2018-09-03T16:23:58.437Z,14.33
2018-09-03T16:26:26.843Z,13.83
2018-09-03T16:28:55.664Z,12.35
2018-09-03T16:31:24.501Z,16.32
2018-09-03T16:33:53.448Z,13.65
2018-09-03T16:36:22.278Z,12.28
2018-09-03T16:38:51.140Z,17.87
2018-09-03T16:41:19.875Z,12.35
2018-09-03T16:43:48.741Z,12.90
2018-09-03T16:46:17.569Z,16.13
2018-09-03T16:48:46.401Z,14.63
2018-09-03T16:51:15.230Z,13.30
2018-09-03T16:53:44.070Z,13.93
2018-09-03T16:56:12.885Z,11.80
2018-09-03T16:58:41.690Z,12.73
2018-09-03T17:01:10.675Z,12.53
2018-09-03T17:03:39.002Z,15.67
2018-09-03T17:06:07.825Z,15.17
2018-09-03T17:08:36.651Z,14.83
2018-09-03T17:11:05.512Z,15.93
2018-09-03T17:13:34.413Z,13.93
2018-09-03T17:16:03.233Z,17.23
2018-09-03T17:18:32.088Z,13.57
2018-09-03T17:21:00.937Z,14.07
2018-09-03T17:23:30.118Z,15.30
2018-09-03T17:25:58.532Z,13.43
2018-09-03T17:28:27.346Z,12.40
2018-09-03T17:30:55.772Z,12.23
2018-09-03T17:33:24.616Z,13.00
2018-09-03T17:35:53.046Z,13.53
2018-09-03T17:38:21.847Z,13.07
2018-09-03T17:40:50.381Z,13.93
2018-09-03T17:43:19.212Z,14.77
2018-09-03T17:45:48.034Z,11.63
2018-09-03T17:48:16.507Z,14.20
2018-09-03T17:50:45.372Z,14.70
2018-09-03T17:53:14.181Z,15.63
2018-09-03T17:55:43.010Z,13.63
2018-09-03T17:58:11.431Z,14.10
2018-09-03T18:00:39.931Z,14.57
2018-09-03T18:03:08.433Z,15.33
2018-09-03T18:05:38.201Z,15.53
2018-09-03T18:08:07.141Z,15.97
2018-09-03T18:10:35.728Z,12.63
2018-09-03T18:13:04.581Z,19.33
2018-09-03T18:15:32.970Z,21.77
2018-09-03T18:18:01.448Z,12.67
2018-09-03T18:20:30.217Z,18.97
2018-09-03T18:22:58.648Z,20.47
2018-09-03T18:25:27.093Z,16.00
2018-09-03T18:27:55.544Z,14.73
2018-09-03T18:30:24.027Z,15.53
2018-09-03T18:32:52.501Z,12.63
2018-09-03T18:35:21.307Z,13.73
2018-09-03T18:37:50.090Z,19.43
2018-09-03T18:40:18.589Z,15.07
2018-09-03T18:42:47.396Z,16.03
2018-09-03T18:45:16.354Z,11.07
2018-09-03T18:47:45.191Z,13.00
2018-09-03T18:50:15.048Z,13.80
2018-09-03T18:52:43.533Z,13.80
2018-09-03T18:55:12.344Z,13.00
2018-09-03T18:57:41.157Z,15.57
2018-09-03T19:00:10.028Z,17.43
2018-09-03T19:02:38.428Z,15.70
2018-09-03T19:05:06.855Z,17.50
2018-09-03T19:07:36.460Z,14.23
2018-09-03T19:10:05.349Z,15.47
2018-09-03T19:12:34.170Z,14.17
2018-09-03T19:15:02.955Z,15.17
2018-09-03T19:17:32.324Z,15.73
2018-09-03T19:20:00.774Z,15.53
2018-09-03T19:22:29.583Z,13.33
2018-09-03T19:24:58.483Z,16.87
2018-09-03T19:27:26.964Z,18.20
2018-09-03T19:29:55.847Z,17.53
2018-09-03T19:32:24.240Z,16.60
2018-09-03T19:34:52.634Z,18.50
2018-09-03T19:37:21.093Z,24.10
2018-09-03T19:39:49.479Z,17.80
2018-09-03T19:42:18.277Z,20.07
2018-09-03T19:44:47.169Z,20.70
2018-09-03T19:47:15.923Z,21.13
2018-09-03T19:49:44.352Z,21.33
2018-09-03T19:52:13.162Z,23.97
2018-09-03T19:54:41.968Z,23.80
2018-09-03T19:57:10.840Z,19.43
2018-09-03T19:59:39.647Z,20.60
2018-09-03T20:02:08.498Z,19.23
2018-09-03T20:04:36.898Z,18.87
2018-09-03T20:07:05.363Z,22.77
2018-09-03T20:09:34.147Z,22.33
2018-09-03T20:12:02.641Z,18.93
2018-09-03T20:14:31.118Z,24.40
2018-09-03T20:17:00.022Z,17.53
2018-09-03T20:19:28.833Z,19.43
2018-09-03T20:21:57.235Z,19.70
2018-09-03T20:24:26.108Z,17.80
2018-09-03T20:26:54.876Z,20.67
2018-09-03T20:29:23.394Z,20.23
2018-09-03T20:31:51.777Z,22.93
2018-09-03T20:34:20.570Z,20.20
2018-09-03T20:36:49.728Z,26.37
2018-09-03T20:39:18.104Z,21.90
2018-09-03T20:41:46.494Z,18.50
2018-09-03T20:44:15.073Z,20.57
2018-09-03T20:46:43.885Z,22.27
2018-09-03T20:49:12.686Z,20.77
2018-09-03T20:51:41.149Z,23.47
2018-09-03T20:54:10.008Z,22.93
2018-09-03T20:56:38.826Z,31.90
2018-09-03T20:59:07.265Z,23.50
2018-09-03T21:01:36.237Z,22.87
2018-09-03T21:04:05.097Z,24.83
2018-09-03T21:06:34.350Z,28.27
2018-09-03T21:09:03.219Z,28.93
2018-09-03T21:11:32.042Z,26.50
2018-09-03T21:14:00.731Z,28.00
2018-09-03T21:16:29.163Z,25.13
2018-09-03T21:18:58.038Z,31.97
2018-09-03T21:21:39.687Z,23.40
2018-09-03T21:24:08.467Z,24.23
2018-09-03T21:26:36.881Z,21.27
2018-09-03T21:29:05.787Z,21.97
2018-09-03T21:31:37.876Z,28.00
2018-09-03T21:34:06.743Z,22.87
2018-09-03T21:36:35.156Z,24.93
2018-09-03T21:39:04.304Z,24.10
2018-09-03T21:41:33.569Z,26.03
2018-09-03T21:44:02.355Z,26.60
2018-09-03T21:46:31.219Z,26.60
2018-09-03T21:49:00.041Z,24.60
2018-09-03T21:51:28.875Z,21.87
2018-09-03T21:53:57.678Z,25.80
2018-09-03T21:56:26.452Z,29.53
2018-09-03T21:58:55.285Z,25.67
2018-09-03T22:01:24.066Z,24.33
2018-09-03T22:03:52.487Z,24.17
2018-09-03T22:06:21.308Z,23.83
2018-09-03T22:08:49.719Z,28.10
2018-09-03T22:11:18.206Z,26.67
2018-09-03T22:13:46.637Z,26.70
2018-09-03T22:16:15.038Z,25.53
2018-09-03T22:18:43.885Z,30.00
2018-09-03T22:21:12.671Z,26.83
2018-09-03T22:23:41.546Z,28.47
2018-09-03T22:26:10.837Z,28.60
2018-09-03T22:28:39.624Z,28.27
2018-09-03T22:31:08.399Z,26.93
2018-09-03T22:33:37.251Z,28.03
2018-09-03T22:36:06.283Z,26.50
2018-09-03T22:38:35.099Z,26.43
2018-09-03T22:41:03.611Z,32.70
2018-09-03T22:43:32.456Z,28.23
2018-09-03T22:46:01.400Z,30.97
2018-09-03T22:48:30.222Z,27.27
2018-09-03T22:50:58.991Z,26.63
2018-09-03T22:53:27.806Z,28.40
2018-09-03T22:55:56.207Z,24.37
2018-09-03T22:58:25.035Z,27.43
2018-09-03T23:00:53.403Z,28.73
2018-09-03T23:03:22.230Z,31.20
2018-09-03T23:05:51.016Z,24.03
2018-09-03T23:08:19.476Z,31.80
2018-09-03T23:10:48.269Z,28.10
2018-09-03T23:13:17.038Z,29.67
2018-09-03T23:15:52.989Z,27.67
2018-09-03T23:18:22.837Z,27.00
2018-09-03T23:20:51.664Z,31.13
2018-09-03T23:23:20.119Z,28.30
2018-09-03T23:25:49.000Z,30.97
2018-09-03T23:28:17.883Z,29.33
2018-09-03T23:30:46.687Z,28.90
2018-09-03T23:33:15.074Z,44.20
2018-09-03T23:35:43.861Z,33.43
2018-09-03T23:38:12.685Z,33.93
2018-09-03T23:40:41.107Z,30.13
2018-09-03T23:43:09.962Z,32.27
2018-09-03T23:45:38.748Z,32.67
2018-09-03T23:48:07.209Z,31.73
2018-09-03T23:50:35.673Z,31.23
2018-09-03T23:53:04.195Z,28.77
2018-09-03T23:55:32.679Z,30.67
2018-09-03T23:58:01.477Z,33.07
